EDHLLOWI

Guest
Details From EDHL - Lubeck Blankensee
To LOWI - Innsbruck Kranebitten
Flight Number -
Tags Generated
Created
Modified
Stats Distance 394 nm / 729 km
Max Altitude 0 ft / 0 m
Waypoints 3
Social Downloads 0
Likes 0
Share VATSIM

Download

Looking for another format? Having issues loading an existing format? Contact us
Advertisement - Login to hide

Notes

Generated

Route

EDHL OBAGA LOWI

ID Type Via Altitude Latitude Longitude Leg Dist Tot Dist Heading (true) Name
O EDHL APT - 0 ft / 0 m 53.80205˚ 10.70189˚ - 0 nm - -
OBAGA FIX - 0 ft / 0 m 47.59861˚ 11.25000˚ 373 nm 373 nm 177° / 177° -
O LOWI APT - 0 ft / 0 m 47.25883˚ 11.33091˚ 20 nm 393 nm 171° / 171° -

Altitude Profile

Advertisement - Login to hide

Weather


0- 5 10 15 20 25 30 35+ Temperature / ° C

Clouds and Precipitation
Forecast for 2018-05-24 12:00 UTC. Updated 5 hours ago

Ground ~20,000 ft ~40,000 ft Winds

EDHL

Details ICAO EDHL (LBC)
Name Lubeck Blankensee
Region Germany - Civil
Timezone Europe/Berlin (UTC+2.0)
Stats Elevation 53 ft / 16 m (AMSL)
Location 53.804963° 10.717059°
Runways 1
Magnetic Variation 3.084° E

METAR

EDHL 241550Z 07012KT CAVOK 24/09 Q1022

Decode

TAF

Not found

Departure Runways

ID Width Length Bearing (true) Bearing (mag) Surface Threshold Offset Overrun Length
07 197 ft / 60 m 6,877 ft / 2,096 m 71.96° 68.88° Asphalt 984 ft / 300 m 0 ft / 0 m
25 197 ft / 60 m 6,877 ft / 2,096 m 251.98° 248.90° Asphalt 0 ft / 0 m 0 ft / 0 m

LOWI

Details ICAO LOWI (INN)
Name Innsbruck Kranebitten
Region Austria
Timezone Europe/Vienna (UTC+2.0)
Stats Elevation 1,906 ft / 581 m (AMSL)
Location 47.260226° 11.343967°
Runways 1
Magnetic Variation 3.072° E

METAR

LOWI 241550Z 11005KT 070V180 9999 FEW030 SCT060 FEW060TCU BKN100 21/12 Q1017 TEMPO SHRA

Decode

TAF

TAF LOWI 241115Z 2412/2512 08007KT 9999 SCT050TCU BKN100 TX24/2512Z TN12/2504Z TEMPO 2412/2420 VRB15G25KT TSRA SCT070CB BKN080 BECMG 2419/2421 27004KT FEW010 TEMPO 2500/2507 BKN010 BECMG 2509/2511 08008KT FEW040

Decode

Destination Runways

ID Width Length Bearing (true) Bearing (mag) Surface Threshold Offset Overrun Length
08 148 ft / 45 m 6,545 ft / 1,995 m 81.02° 77.95° Asphalt 338 ft / 103 m 0 ft / 0 m
26 148 ft / 45 m 6,545 ft / 1,995 m 261.04° 257.97° Asphalt 0 ft / 0 m 0 ft / 0 m

Approach Navaids

Runway Type Ident Frequency Range Bearing (true) Bearing (mag) Slope Elevation
26 Localiser OEV 111.10 MHz 27 nm / 50 km 256.00° 252.93° - 1,906 ft / 581 m (AMSL)
26 Localiser OEJ 109.70 MHz 30 nm / 56 km 69.00° 65.93° - 1,906 ft / 581 m (AMSL)
26 Glidescope OEV 111.10 MHz 18 nm / 33 km 256.00° 252.93° 3.80° 1,911 ft / 582 m (AMSL)
26 DME OEJ 109.70 MHz 30 nm / 56 km - - - 1,906 ft / 581 m (AMSL)
26 DME OEV 111.10 MHz 27 nm / 50 km - - - 1,911 ft / 582 m (AMSL)

Popular Alternatives